sensor_id;sensor_type;location;lat;lon;timestamp;temperature;humidity
39675;DHT22;27790;50.840;4.386;2024-02-23T00:01:59;7.40;99.90
39675;DHT22;27790;50.840;4.386;2024-02-23T00:04:25;7.50;99.90
39675;DHT22;27790;50.840;4.386;2024-02-23T00:06:50;7.60;99.90
39675;DHT22;27790;50.840;4.386;2024-02-23T00:09:16;7.60;99.90
39675;DHT22;27790;50.840;4.386;2024-02-23T00:11:42;7.40;99.90
39675;DHT22;27790;50.840;4.386;2024-02-23T00:14:12;7.40;99.90
39675;DHT22;27790;50.840;4.386;2024-02-23T00:16:39;7.50;99.90
39675;DHT22;27790;50.840;4.386;2024-02-23T00:19:09;7.60;99.90
39675;DHT22;27790;50.840;4.386;2024-02-23T00:21:38;7.50;99.90
39675;DHT22;27790;50.840;4.386;2024-02-23T00:24:07;7.40;99.90
39675;DHT22;27790;50.840;4.386;2024-02-23T00:26:33;7.30;99.90
39675;DHT22;27790;50.840;4.386;2024-02-23T00:28:59;7.20;99.90
39675;DHT22;27790;50.840;4.386;2024-02-23T00:31:24;7.20;99.90
39675;DHT22;27790;50.840;4.386;2024-02-23T00:33:50;7.10;99.90
39675;DHT22;27790;50.840;4.386;2024-02-23T00:36:16;7.10;99.90
39675;DHT22;27790;50.840;4.386;2024-02-23T00:38:42;7.30;99.90
39675;DHT22;27790;50.840;4.386;2024-02-23T00:41:08;7.40;99.90
39675;DHT22;27790;50.840;4.386;2024-02-23T00:43:40;7.40;99.90
39675;DHT22;27790;50.840;4.386;2024-02-23T00:46:08;7.20;99.90
39675;DHT22;27790;50.840;4.386;2024-02-23T00:48:34;7.20;99.90
39675;DHT22;27790;50.840;4.386;2024-02-23T00:51:01;7.30;99.90
39675;DHT22;27790;50.840;4.386;2024-02-23T00:53:28;7.30;99.90
39675;DHT22;27790;50.840;4.386;2024-02-23T00:55:54;7.40;99.90
39675;DHT22;27790;50.840;4.386;2024-02-23T00:58:19;7.40;99.90
39675;DHT22;27790;50.840;4.386;2024-02-23T01:00:45;7.40;99.90
39675;DHT22;27790;50.840;4.386;2024-02-23T01:03:10;7.20;99.90
39675;DHT22;27790;50.840;4.386;2024-02-23T01:05:36;7.10;99.90
39675;DHT22;27790;50.840;4.386;2024-02-23T01:08:03;7.00;99.90
39675;DHT22;27790;50.840;4.386;2024-02-23T01:10:29;7.00;99.90
39675;DHT22;27790;50.840;4.386;2024-02-23T01:12:55;7.00;99.90
39675;DHT22;27790;50.840;4.386;2024-02-23T01:15:20;6.90;99.90
39675;DHT22;27790;50.840;4.386;2024-02-23T01:17:46;6.80;99.90
39675;DHT22;27790;50.840;4.386;2024-02-23T01:20:11;7.00;99.90
39675;DHT22;27790;50.840;4.386;2024-02-23T01:22:37;7.10;99.90
39675;DHT22;27790;50.840;4.386;2024-02-23T01:25:04;7.10;99.90
39675;DHT22;27790;50.840;4.386;2024-02-23T01:27:29;7.00;99.90
39675;DHT22;27790;50.840;4.386;2024-02-23T01:29:55;6.80;99.90
39675;DHT22;27790;50.840;4.386;2024-02-23T01:32:21;6.80;99.90
39675;DHT22;27790;50.840;4.386;2024-02-23T01:34:47;6.90;99.90
39675;DHT22;27790;50.840;4.386;2024-02-23T01:37:13;7.10;99.90
39675;DHT22;27790;50.840;4.386;2024-02-23T01:39:38;7.10;99.90
39675;DHT22;27790;50.840;4.386;2024-02-23T01:42:04;7.00;99.90
39675;DHT22;27790;50.840;4.386;2024-02-23T01:44:30;7.00;99.90
39675;DHT22;27790;50.840;4.386;2024-02-23T01:46:55;7.00;99.90
39675;DHT22;27790;50.840;4.386;2024-02-23T01:49:22;7.00;99.90
39675;DHT22;27790;50.840;4.386;2024-02-23T01:51:48;7.00;99.90
39675;DHT22;27790;50.840;4.386;2024-02-23T01:54:14;7.10;99.90
39675;DHT22;27790;50.840;4.386;2024-02-23T01:56:40;7.20;99.90
39675;DHT22;27790;50.840;4.386;2024-02-23T01:59:06;7.30;99.90
39675;DHT22;27790;50.840;4.386;2024-02-23T02:01:33;7.20;99.90
39675;DHT22;27790;50.840;4.386;2024-02-23T02:03:58;7.20;99.90
39675;DHT22;27790;50.840;4.386;2024-02-23T02:06:24;7.30;99.90
39675;DHT22;27790;50.840;4.386;2024-02-23T02:08:50;7.30;99.90
39675;DHT22;27790;50.840;4.386;2024-02-23T02:11:16;7.50;99.90
39675;DHT22;27790;50.840;4.386;2024-02-23T02:13:42;7.70;99.90
39675;DHT22;27790;50.840;4.386;2024-02-23T02:16:07;7.70;99.90
39675;DHT22;27790;50.840;4.386;2024-02-23T02:18:33;7.80;99.90
39675;DHT22;27790;50.840;4.386;2024-02-23T02:20:59;7.50;99.90
39675;DHT22;27790;50.840;4.386;2024-02-23T02:23:25;7.50;99.90
39675;DHT22;27790;50.840;4.386;2024-02-23T02:25:58;7.60;99.90
39675;DHT22;27790;50.840;4.386;2024-02-23T02:28:25;7.60;99.90
39675;DHT22;27790;50.840;4.386;2024-02-23T02:30:51;7.60;99.90
39675;DHT22;27790;50.840;4.386;2024-02-23T02:33:18;7.60;99.90
39675;DHT22;27790;50.840;4.386;2024-02-23T02:35:43;7.60;99.90
39675;DHT22;27790;50.840;4.386;2024-02-23T02:38:10;7.50;99.90
39675;DHT22;27790;50.840;4.386;2024-02-23T02:40:36;7.50;99.90
39675;DHT22;27790;50.840;4.386;2024-02-23T02:43:02;7.40;99.90
39675;DHT22;27790;50.840;4.386;2024-02-23T02:45:28;7.20;99.90
39675;DHT22;27790;50.840;4.386;2024-02-23T02:47:54;7.10;99.90
39675;DHT22;27790;50.840;4.386;2024-02-23T02:50:19;7.00;99.90
39675;DHT22;27790;50.840;4.386;2024-02-23T02:52:45;7.10;99.90
39675;DHT22;27790;50.840;4.386;2024-02-23T02:55:10;7.20;99.90
39675;DHT22;27790;50.840;4.386;2024-02-23T02:57:36;7.30;99.90
39675;DHT22;27790;50.840;4.386;2024-02-23T03:00:03;7.40;99.90
39675;DHT22;27790;50.840;4.386;2024-02-23T03:02:34;7.40;99.90
39675;DHT22;27790;50.840;4.386;2024-02-23T03:05:00;7.50;99.90
39675;DHT22;27790;50.840;4.386;2024-02-23T03:07:26;7.60;99.90
39675;DHT22;27790;50.840;4.386;2024-02-23T03:09:51;7.60;99.90
39675;DHT22;27790;50.840;4.386;2024-02-23T03:12:17;7.70;99.90
39675;DHT22;27790;50.840;4.386;2024-02-23T03:14:43;7.80;99.90
39675;DHT22;27790;50.840;4.386;2024-02-23T03:17:09;7.80;99.90
39675;DHT22;27790;50.840;4.386;2024-02-23T03:19:36;7.80;99.90
39675;DHT22;27790;50.840;4.386;2024-02-23T03:22:01;7.60;99.90
39675;DHT22;27790;50.840;4.386;2024-02-23T03:24:27;7.70;99.90
39675;DHT22;27790;50.840;4.386;2024-02-23T03:26:53;7.70;99.90
39675;DHT22;27790;50.840;4.386;2024-02-23T03:29:18;7.50;99.90
39675;DHT22;27790;50.840;4.386;2024-02-23T03:31:44;7.50;99.90
39675;DHT22;27790;50.840;4.386;2024-02-23T03:34:09;7.50;99.90
39675;DHT22;27790;50.840;4.386;2024-02-23T03:36:36;7.60;99.90
39675;DHT22;27790;50.840;4.386;2024-02-23T03:39:02;7.60;99.90
39675;DHT22;27790;50.840;4.386;2024-02-23T03:41:28;7.40;99.90
39675;DHT22;27790;50.840;4.386;2024-02-23T03:43:53;7.30;99.90
39675;DHT22;27790;50.840;4.386;2024-02-23T03:46:19;7.30;99.90
39675;DHT22;27790;50.840;4.386;2024-02-23T03:48:45;7.30;99.90
39675;DHT22;27790;50.840;4.386;2024-02-23T03:51:11;7.30;99.90
39675;DHT22;27790;50.840;4.386;2024-02-23T03:53:36;7.30;99.90
39675;DHT22;27790;50.840;4.386;2024-02-23T03:56:02;7.30;99.90
39675;DHT22;27790;50.840;4.386;2024-02-23T03:58:28;7.30;99.90
39675;DHT22;27790;50.840;4.386;2024-02-23T04:00:54;7.50;99.90
39675;DHT22;27790;50.840;4.386;2024-02-23T04:03:19;7.40;99.90
39675;DHT22;27790;50.840;4.386;2024-02-23T04:05:45;7.40;99.90
39675;DHT22;27790;50.840;4.386;2024-02-23T04:08:11;7.50;99.90
39675;DHT22;27790;50.840;4.386;2024-02-23T04:10:37;7.40;99.90
39675;DHT22;27790;50.840;4.386;2024-02-23T04:13:03;7.40;99.90
39675;DHT22;27790;50.840;4.386;2024-02-23T04:15:29;7.30;99.90
39675;DHT22;27790;50.840;4.386;2024-02-23T04:17:54;7.20;99.90
39675;DHT22;27790;50.840;4.386;2024-02-23T04:20:20;7.30;99.90
39675;DHT22;27790;50.840;4.386;2024-02-23T04:22:45;7.20;99.90
39675;DHT22;27790;50.840;4.386;2024-02-23T04:25:11;7.10;99.90
39675;DHT22;27790;50.840;4.386;2024-02-23T04:27:37;7.40;99.90
39675;DHT22;27790;50.840;4.386;2024-02-23T04:30:03;7.50;99.90
39675;DHT22;27790;50.840;4.386;2024-02-23T04:32:29;7.60;99.90
39675;DHT22;27790;50.840;4.386;2024-02-23T04:34:55;7.60;99.90
39675;DHT22;27790;50.840;4.386;2024-02-23T04:37:21;7.60;99.90
39675;DHT22;27790;50.840;4.386;2024-02-23T04:39:46;7.50;99.90
39675;DHT22;27790;50.840;4.386;2024-02-23T04:42:12;7.40;99.90
39675;DHT22;27790;50.840;4.386;2024-02-23T04:44:38;7.40;99.90
39675;DHT22;27790;50.840;4.386;2024-02-23T04:47:03;7.50;99.90
39675;DHT22;27790;50.840;4.386;2024-02-23T04:49:29;7.50;99.90
39675;DHT22;27790;50.840;4.386;2024-02-23T04:51:54;7.40;99.90
39675;DHT22;27790;50.840;4.386;2024-02-23T04:54:20;7.40;99.90
39675;DHT22;27790;50.840;4.386;2024-02-23T04:56:47;7.50;99.90
39675;DHT22;27790;50.840;4.386;2024-02-23T04:59:13;7.50;99.90
39675;DHT22;27790;50.840;4.386;2024-02-23T05:01:39;7.60;99.90
39675;DHT22;27790;50.840;4.386;2024-02-23T05:04:05;7.70;99.90
39675;DHT22;27790;50.840;4.386;2024-02-23T05:06:30;7.80;99.90
39675;DHT22;27790;50.840;4.386;2024-02-23T05:08:56;7.90;99.90
39675;DHT22;27790;50.840;4.386;2024-02-23T05:11:22;7.60;99.90
39675;DHT22;27790;50.840;4.386;2024-02-23T05:13:47;7.60;99.90
39675;DHT22;27790;50.840;4.386;2024-02-23T05:16:16;7.70;99.90
39675;DHT22;27790;50.840;4.386;2024-02-23T05:18:42;7.90;99.90
39675;DHT22;27790;50.840;4.386;2024-02-23T05:21:09;7.90;99.90
39675;DHT22;27790;50.840;4.386;2024-02-23T05:23:35;8.00;99.90
39675;DHT22;27790;50.840;4.386;2024-02-23T05:26:00;8.00;99.90
39675;DHT22;27790;50.840;4.386;2024-02-23T05:28:26;7.90;99.90
39675;DHT22;27790;50.840;4.386;2024-02-23T05:30:53;7.80;99.90
39675;DHT22;27790;50.840;4.386;2024-02-23T05:33:19;7.60;99.90
39675;DHT22;27790;50.840;4.386;2024-02-23T05:35:46;7.40;99.90
39675;DHT22;27790;50.840;4.386;2024-02-23T05:38:14;7.60;99.90
39675;DHT22;27790;50.840;4.386;2024-02-23T05:40:40;7.70;99.90
39675;DHT22;27790;50.840;4.386;2024-02-23T05:43:05;7.80;99.90
39675;DHT22;27790;50.840;4.386;2024-02-23T05:45:31;7.70;99.90
39675;DHT22;27790;50.840;4.386;2024-02-23T05:47:57;7.80;99.90
39675;DHT22;27790;50.840;4.386;2024-02-23T05:50:23;7.80;99.90
39675;DHT22;27790;50.840;4.386;2024-02-23T05:52:49;7.80;99.90
39675;DHT22;27790;50.840;4.386;2024-02-23T05:55:14;7.60;99.90
39675;DHT22;27790;50.840;4.386;2024-02-23T05:57:40;7.50;99.90
39675;DHT22;27790;50.840;4.386;2024-02-23T06:00:06;7.50;99.90
39675;DHT22;27790;50.840;4.386;2024-02-23T06:02:32;7.50;99.90
39675;DHT22;27790;50.840;4.386;2024-02-23T06:04:58;7.40;99.90
39675;DHT22;27790;50.840;4.386;2024-02-23T06:07:24;7.30;99.90
39675;DHT22;27790;50.840;4.386;2024-02-23T06:09:57;7.40;99.90
39675;DHT22;27790;50.840;4.386;2024-02-23T06:12:23;7.30;99.90
39675;DHT22;27790;50.840;4.386;2024-02-23T06:14:50;7.30;99.90
39675;DHT22;27790;50.840;4.386;2024-02-23T06:17:16;7.40;99.90
39675;DHT22;27790;50.840;4.386;2024-02-23T06:19:42;7.50;99.90
39675;DHT22;27790;50.840;4.386;2024-02-23T06:22:07;7.60;99.90
39675;DHT22;27790;50.840;4.386;2024-02-23T06:24:35;7.60;99.90
39675;DHT22;27790;50.840;4.386;2024-02-23T06:27:01;7.40;99.90
39675;DHT22;27790;50.840;4.386;2024-02-23T06:29:28;7.40;99.90
39675;DHT22;27790;50.840;4.386;2024-02-23T06:31:55;7.20;99.90
39675;DHT22;27790;50.840;4.386;2024-02-23T06:34:20;7.10;99.90
39675;DHT22;27790;50.840;4.386;2024-02-23T06:36:46;7.20;99.90
39675;DHT22;27790;50.840;4.386;2024-02-23T06:39:12;7.10;99.90
39675;DHT22;27790;50.840;4.386;2024-02-23T06:41:38;7.10;99.90
39675;DHT22;27790;50.840;4.386;2024-02-23T06:44:07;7.30;99.90
39675;DHT22;27790;50.840;4.386;2024-02-23T06:46:32;7.30;99.90
39675;DHT22;27790;50.840;4.386;2024-02-23T06:48:58;7.40;99.90
39675;DHT22;27790;50.840;4.386;2024-02-23T06:51:23;7.40;99.90
39675;DHT22;27790;50.840;4.386;2024-02-23T06:53:49;7.60;99.90
39675;DHT22;27790;50.840;4.386;2024-02-23T06:56:15;7.70;99.90
39675;DHT22;27790;50.840;4.386;2024-02-23T06:58:40;7.90;99.90
39675;DHT22;27790;50.840;4.386;2024-02-23T07:01:06;8.00;99.90
39675;DHT22;27790;50.840;4.386;2024-02-23T07:03:32;8.00;99.90
39675;DHT22;27790;50.840;4.386;2024-02-23T07:05:58;8.00;99.90
39675;DHT22;27790;50.840;4.386;2024-02-23T07:08:24;8.00;99.90
39675;DHT22;27790;50.840;4.386;2024-02-23T07:10:50;7.90;99.90
39675;DHT22;27790;50.840;4.386;2024-02-23T07:13:15;7.90;99.90
39675;DHT22;27790;50.840;4.386;2024-02-23T07:15:42;8.10;99.90
39675;DHT22;27790;50.840;4.386;2024-02-23T07:18:08;8.10;99.90
39675;DHT22;27790;50.840;4.386;2024-02-23T07:20:35;8.20;99.90
39675;DHT22;27790;50.840;4.386;2024-02-23T07:23:00;8.30;99.90
39675;DHT22;27790;50.840;4.386;2024-02-23T07:25:26;8.20;99.90
39675;DHT22;27790;50.840;4.386;2024-02-23T07:27:52;8.30;99.90
39675;DHT22;27790;50.840;4.386;2024-02-23T07:30:18;8.40;99.90
39675;DHT22;27790;50.840;4.386;2024-02-23T07:32:44;8.60;99.90
39675;DHT22;27790;50.840;4.386;2024-02-23T07:35:10;8.30;99.90
39675;DHT22;27790;50.840;4.386;2024-02-23T07:37:39;8.40;99.90
39675;DHT22;27790;50.840;4.386;2024-02-23T07:40:05;8.50;99.90
39675;DHT22;27790;50.840;4.386;2024-02-23T07:42:34;8.50;99.90
39675;DHT22;27790;50.840;4.386;2024-02-23T07:45:04;8.40;99.90
39675;DHT22;27790;50.840;4.386;2024-02-23T07:47:30;8.20;99.90
39675;DHT22;27790;50.840;4.386;2024-02-23T07:49:56;8.30;99.90
39675;DHT22;27790;50.840;4.386;2024-02-23T07:52:22;8.40;99.90
39675;DHT22;27790;50.840;4.386;2024-02-23T07:54:50;8.50;99.90
39675;DHT22;27790;50.840;4.386;2024-02-23T07:57:18;8.60;99.90
39675;DHT22;27790;50.840;4.386;2024-02-23T07:59:43;8.80;99.90
39675;DHT22;27790;50.840;4.386;2024-02-23T08:02:09;8.90;99.90
39675;DHT22;27790;50.840;4.386;2024-02-23T08:04:34;9.00;99.90
39675;DHT22;27790;50.840;4.386;2024-02-23T08:07:00;9.00;99.90
39675;DHT22;27790;50.840;4.386;2024-02-23T08:09:26;8.80;99.90
39675;DHT22;27790;50.840;4.386;2024-02-23T08:11:51;8.90;99.90
39675;DHT22;27790;50.840;4.386;2024-02-23T08:14:17;8.80;99.90
39675;DHT22;27790;50.840;4.386;2024-02-23T08:16:42;8.50;99.90
39675;DHT22;27790;50.840;4.386;2024-02-23T08:19:09;8.40;99.90
39675;DHT22;27790;50.840;4.386;2024-02-23T08:21:35;8.50;99.90
39675;DHT22;27790;50.840;4.386;2024-02-23T08:24:01;8.50;99.90
39675;DHT22;27790;50.840;4.386;2024-02-23T08:26:28;8.60;99.90
39675;DHT22;27790;50.840;4.386;2024-02-23T08:28:53;8.70;99.90
39675;DHT22;27790;50.840;4.386;2024-02-23T08:31:19;8.50;99.90
39675;DHT22;27790;50.840;4.386;2024-02-23T08:33:45;8.10;99.90
39675;DHT22;27790;50.840;4.386;2024-02-23T08:36:10;7.90;99.90
39675;DHT22;27790;50.840;4.386;2024-02-23T08:38:36;7.60;99.90
39675;DHT22;27790;50.840;4.386;2024-02-23T08:41:02;7.70;99.90
39675;DHT22;27790;50.840;4.386;2024-02-23T08:43:28;7.80;99.90
39675;DHT22;27790;50.840;4.386;2024-02-23T08:45:54;7.70;99.90
39675;DHT22;27790;50.840;4.386;2024-02-23T08:48:19;7.70;99.90
39675;DHT22;27790;50.840;4.386;2024-02-23T08:50:45;7.70;99.90
39675;DHT22;27790;50.840;4.386;2024-02-23T08:53:11;7.60;99.90
39675;DHT22;27790;50.840;4.386;2024-02-23T08:55:37;7.70;99.90
39675;DHT22;27790;50.840;4.386;2024-02-23T08:58:03;7.80;99.90
39675;DHT22;27790;50.840;4.386;2024-02-23T09:00:28;7.50;99.90
39675;DHT22;27790;50.840;4.386;2024-02-23T09:02:54;7.40;99.90
39675;DHT22;27790;50.840;4.386;2024-02-23T09:05:20;7.30;99.90
39675;DHT22;27790;50.840;4.386;2024-02-23T09:07:46;7.30;99.90
39675;DHT22;27790;50.840;4.386;2024-02-23T09:10:11;7.50;99.90
39675;DHT22;27790;50.840;4.386;2024-02-23T09:12:37;7.60;99.90
39675;DHT22;27790;50.840;4.386;2024-02-23T09:15:04;7.60;99.90
39675;DHT22;27790;50.840;4.386;2024-02-23T09:17:30;7.40;99.90
39675;DHT22;27790;50.840;4.386;2024-02-23T09:19:56;7.40;99.90
39675;DHT22;27790;50.840;4.386;2024-02-23T09:22:21;7.50;99.90
39675;DHT22;27790;50.840;4.386;2024-02-23T09:24:48;7.70;99.90
39675;DHT22;27790;50.840;4.386;2024-02-23T09:27:13;7.80;99.90
39675;DHT22;27790;50.840;4.386;2024-02-23T09:29:40;8.00;99.90
39675;DHT22;27790;50.840;4.386;2024-02-23T09:32:07;8.20;99.90
39675;DHT22;27790;50.840;4.386;2024-02-23T09:34:32;8.20;99.90
39675;DHT22;27790;50.840;4.386;2024-02-23T09:36:58;8.40;99.90
39675;DHT22;27790;50.840;4.386;2024-02-23T09:39:25;8.30;99.90
39675;DHT22;27790;50.840;4.386;2024-02-23T09:41:54;8.50;99.90
39675;DHT22;27790;50.840;4.386;2024-02-23T09:44:20;8.70;99.90
39675;DHT22;27790;50.840;4.386;2024-02-23T09:46:49;8.80;99.90
39675;DHT22;27790;50.840;4.386;2024-02-23T09:49:15;8.80;99.90
39675;DHT22;27790;50.840;4.386;2024-02-23T09:51:43;8.80;99.90
39675;DHT22;27790;50.840;4.386;2024-02-23T09:54:09;9.00;99.90
39675;DHT22;27790;50.840;4.386;2024-02-23T09:56:35;9.00;99.90
39675;DHT22;27790;50.840;4.386;2024-02-23T09:59:03;8.90;99.90
39675;DHT22;27790;50.840;4.386;2024-02-23T10:01:32;8.80;99.90
39675;DHT22;27790;50.840;4.386;2024-02-23T10:04:00;9.10;99.90
39675;DHT22;27790;50.840;4.386;2024-02-23T10:06:26;9.20;99.90
39675;DHT22;27790;50.840;4.386;2024-02-23T10:08:53;9.30;99.90
39675;DHT22;27790;50.840;4.386;2024-02-23T10:11:20;9.10;99.90
39675;DHT22;27790;50.840;4.386;2024-02-23T10:13:48;9.30;99.90
39675;DHT22;27790;50.840;4.386;2024-02-23T10:16:17;9.10;99.90
39675;DHT22;27790;50.840;4.386;2024-02-23T10:18:46;8.90;99.90
39675;DHT22;27790;50.840;4.386;2024-02-23T10:21:12;8.90;99.90
39675;DHT22;27790;50.840;4.386;2024-02-23T10:23:38;9.00;99.90
39675;DHT22;27790;50.840;4.386;2024-02-23T10:26:05;9.10;99.90
39675;DHT22;27790;50.840;4.386;2024-02-23T10:28:34;9.30;99.90
39675;DHT22;27790;50.840;4.386;2024-02-23T10:31:00;9.60;99.90
39675;DHT22;27790;50.840;4.386;2024-02-23T10:33:27;9.20;99.90
39675;DHT22;27790;50.840;4.386;2024-02-23T10:35:56;9.30;99.90
39675;DHT22;27790;50.840;4.386;2024-02-23T10:38:23;9.50;99.90
39675;DHT22;27790;50.840;4.386;2024-02-23T10:40:50;9.60;99.90
39675;DHT22;27790;50.840;4.386;2024-02-23T10:43:19;9.60;99.90
39675;DHT22;27790;50.840;4.386;2024-02-23T10:45:46;9.70;99.90
39675;DHT22;27790;50.840;4.386;2024-02-23T10:48:12;9.90;99.90
39675;DHT22;27790;50.840;4.386;2024-02-23T10:50:40;9.70;99.90
39675;DHT22;27790;50.840;4.386;2024-02-23T10:53:07;9.50;99.90
39675;DHT22;27790;50.840;4.386;2024-02-23T10:55:36;9.50;99.90
39675;DHT22;27790;50.840;4.386;2024-02-23T10:58:06;9.80;99.90
39675;DHT22;27790;50.840;4.386;2024-02-23T11:00:33;9.90;99.90
39675;DHT22;27790;50.840;4.386;2024-02-23T11:02:59;9.90;99.90
39675;DHT22;27790;50.840;4.386;2024-02-23T11:05:27;9.90;99.90
39675;DHT22;27790;50.840;4.386;2024-02-23T11:07:56;10.00;99.90
39675;DHT22;27790;50.840;4.386;2024-02-23T11:10:22;10.30;99.90
39675;DHT22;27790;50.840;4.386;2024-02-23T11:13:00;10.30;99.90
39675;DHT22;27790;50.840;4.386;2024-02-23T11:15:26;10.10;99.90
39675;DHT22;27790;50.840;4.386;2024-02-23T11:17:52;10.10;99.90
39675;DHT22;27790;50.840;4.386;2024-02-23T11:20:18;10.30;99.90
39675;DHT22;27790;50.840;4.386;2024-02-23T11:22:43;10.20;99.90
39675;DHT22;27790;50.840;4.386;2024-02-23T11:25:09;10.10;99.90
39675;DHT22;27790;50.840;4.386;2024-02-23T11:27:37;9.90;99.90
39675;DHT22;27790;50.840;4.386;2024-02-23T11:30:07;9.80;99.90
39675;DHT22;27790;50.840;4.386;2024-02-23T11:32:44;9.80;99.90
39675;DHT22;27790;50.840;4.386;2024-02-23T11:35:12;10.00;99.90
39675;DHT22;27790;50.840;4.386;2024-02-23T11:37:55;10.20;99.90
39675;DHT22;27790;50.840;4.386;2024-02-23T11:40:31;10.10;99.90
39675;DHT22;27790;50.840;4.386;2024-02-23T11:42:58;9.90;99.90
39675;DHT22;27790;50.840;4.386;2024-02-23T11:45:30;10.00;99.90
39675;DHT22;27790;50.840;4.386;2024-02-23T11:47:56;10.10;99.90
39675;DHT22;27790;50.840;4.386;2024-02-23T11:50:21;10.20;99.90
39675;DHT22;27790;50.840;4.386;2024-02-23T11:52:47;10.20;99.90
39675;DHT22;27790;50.840;4.386;2024-02-23T11:55:18;10.10;99.90
39675;DHT22;27790;50.840;4.386;2024-02-23T11:57:46;10.10;99.90
39675;DHT22;27790;50.840;4.386;2024-02-23T12:00:12;10.20;99.90
39675;DHT22;27790;50.840;4.386;2024-02-23T12:02:38;10.30;99.90
39675;DHT22;27790;50.840;4.386;2024-02-23T12:05:04;10.20;99.90
39675;DHT22;27790;50.840;4.386;2024-02-23T12:07:30;10.10;99.90
39675;DHT22;27790;50.840;4.386;2024-02-23T12:09:56;10.30;99.90
39675;DHT22;27790;50.840;4.386;2024-02-23T12:12:25;10.30;99.90
39675;DHT22;27790;50.840;4.386;2024-02-23T12:14:50;10.10;99.90
39675;DHT22;27790;50.840;4.386;2024-02-23T12:17:16;10.00;99.90
39675;DHT22;27790;50.840;4.386;2024-02-23T12:19:42;9.90;99.90
39675;DHT22;27790;50.840;4.386;2024-02-23T12:22:07;10.20;99.90
39675;DHT22;27790;50.840;4.386;2024-02-23T12:24:35;10.40;99.90
39675;DHT22;27790;50.840;4.386;2024-02-23T12:27:00;10.30;99.90
39675;DHT22;27790;50.840;4.386;2024-02-23T12:29:26;10.30;99.90
39675;DHT22;27790;50.840;4.386;2024-02-23T12:32:03;10.50;99.90
39675;DHT22;27790;50.840;4.386;2024-02-23T12:34:29;10.10;99.90
39675;DHT22;27790;50.840;4.386;2024-02-23T12:36:55;10.20;99.90
39675;DHT22;27790;50.840;4.386;2024-02-23T12:39:21;10.50;99.90
39675;DHT22;27790;50.840;4.386;2024-02-23T12:41:46;10.80;99.90
39675;DHT22;27790;50.840;4.386;2024-02-23T12:44:12;11.00;99.90
39675;DHT22;27790;50.840;4.386;2024-02-23T12:46:38;11.20;99.80
39675;DHT22;27790;50.840;4.386;2024-02-23T12:49:03;11.20;98.90
39675;DHT22;27790;50.840;4.386;2024-02-23T12:51:29;11.00;99.40
39675;DHT22;27790;50.840;4.386;2024-02-23T12:53:54;10.80;99.10
39675;DHT22;27790;50.840;4.386;2024-02-23T12:56:20;11.00;99.40
39675;DHT22;27790;50.840;4.386;2024-02-23T12:58:46;11.10;99.00
39675;DHT22;27790;50.840;4.386;2024-02-23T13:01:12;11.10;98.70
39675;DHT22;27790;50.840;4.386;2024-02-23T13:03:38;11.10;98.70
39675;DHT22;27790;50.840;4.386;2024-02-23T13:06:06;11.20;98.60
39675;DHT22;27790;50.840;4.386;2024-02-23T13:08:32;11.30;98.80
39675;DHT22;27790;50.840;4.386;2024-02-23T13:10:58;11.40;98.50
39675;DHT22;27790;50.840;4.386;2024-02-23T13:13:24;11.40;98.20
39675;DHT22;27790;50.840;4.386;2024-02-23T13:15:51;11.20;98.40
39675;DHT22;27790;50.840;4.386;2024-02-23T13:18:17;10.90;98.20
39675;DHT22;27790;50.840;4.386;2024-02-23T13:20:44;10.80;98.50
39675;DHT22;27790;50.840;4.386;2024-02-23T13:23:10;10.70;98.60
39675;DHT22;27790;50.840;4.386;2024-02-23T13:25:37;10.60;98.80
39675;DHT22;27790;50.840;4.386;2024-02-23T13:28:04;10.60;99.20
39675;DHT22;27790;50.840;4.386;2024-02-23T13:30:33;10.70;98.80
39675;DHT22;27790;50.840;4.386;2024-02-23T13:32:58;10.80;98.20
39675;DHT22;27790;50.840;4.386;2024-02-23T13:35:24;10.70;98.10
39675;DHT22;27790;50.840;4.386;2024-02-23T13:37:50;10.60;98.60
39675;DHT22;27790;50.840;4.386;2024-02-23T13:40:16;10.70;98.30
39675;DHT22;27790;50.840;4.386;2024-02-23T13:42:43;10.90;98.20
39675;DHT22;27790;50.840;4.386;2024-02-23T13:45:11;11.00;98.20
39675;DHT22;27790;50.840;4.386;2024-02-23T13:47:39;11.20;97.90
39675;DHT22;27790;50.840;4.386;2024-02-23T13:50:06;11.00;97.30
39675;DHT22;27790;50.840;4.386;2024-02-23T13:52:31;11.00;97.60
39675;DHT22;27790;50.840;4.386;2024-02-23T13:54:57;11.10;97.60
39675;DHT22;27790;50.840;4.386;2024-02-23T13:57:23;11.10;97.60
39675;DHT22;27790;50.840;4.386;2024-02-23T13:59:48;11.50;97.70
39675;DHT22;27790;50.840;4.386;2024-02-23T14:02:14;11.70;97.00
39675;DHT22;27790;50.840;4.386;2024-02-23T14:04:40;11.50;96.50
39675;DHT22;27790;50.840;4.386;2024-02-23T14:07:07;11.10;97.00
39675;DHT22;27790;50.840;4.386;2024-02-23T14:09:32;11.20;97.00
39675;DHT22;27790;50.840;4.386;2024-02-23T14:11:58;11.20;97.00
39675;DHT22;27790;50.840;4.386;2024-02-23T14:14:24;11.30;97.10
39675;DHT22;27790;50.840;4.386;2024-02-23T14:16:50;11.40;96.40
39675;DHT22;27790;50.840;4.386;2024-02-23T14:19:15;11.30;96.40
39675;DHT22;27790;50.840;4.386;2024-02-23T14:21:41;11.40;96.50
39675;DHT22;27790;50.840;4.386;2024-02-23T14:24:07;11.40;96.30
39675;DHT22;27790;50.840;4.386;2024-02-23T14:26:32;11.30;96.20
39675;DHT22;27790;50.840;4.386;2024-02-23T14:28:58;11.20;96.50
39675;DHT22;27790;50.840;4.386;2024-02-23T14:31:25;11.30;96.50
39675;DHT22;27790;50.840;4.386;2024-02-23T14:33:51;11.10;96.60
39675;DHT22;27790;50.840;4.386;2024-02-23T14:36:17;11.00;96.90
39675;DHT22;27790;50.840;4.386;2024-02-23T14:38:43;10.90;96.90
39675;DHT22;27790;50.840;4.386;2024-02-23T14:41:09;10.80;97.30
39675;DHT22;27790;50.840;4.386;2024-02-23T14:43:35;10.70;97.20
39675;DHT22;27790;50.840;4.386;2024-02-23T14:46:01;10.80;97.10
39675;DHT22;27790;50.840;4.386;2024-02-23T14:48:27;11.00;97.00
39675;DHT22;27790;50.840;4.386;2024-02-23T14:50:53;11.30;96.80
39675;DHT22;27790;50.840;4.386;2024-02-23T14:53:18;11.40;96.40
39675;DHT22;27790;50.840;4.386;2024-02-23T14:55:44;11.60;95.60
39675;DHT22;27790;50.840;4.386;2024-02-23T14:58:10;11.40;96.20
39675;DHT22;27790;50.840;4.386;2024-02-23T15:00:35;11.50;95.90
39675;DHT22;27790;50.840;4.386;2024-02-23T15:03:02;11.50;95.60
39675;DHT22;27790;50.840;4.386;2024-02-23T15:05:28;11.40;96.20
39675;DHT22;27790;50.840;4.386;2024-02-23T15:07:53;11.20;96.20
39675;DHT22;27790;50.840;4.386;2024-02-23T15:10:19;11.20;96.30
39675;DHT22;27790;50.840;4.386;2024-02-23T15:12:45;11.30;96.40
39675;DHT22;27790;50.840;4.386;2024-02-23T15:15:11;11.40;96.30
39675;DHT22;27790;50.840;4.386;2024-02-23T15:17:37;11.20;96.50
39675;DHT22;27790;50.840;4.386;2024-02-23T15:20:03;11.10;96.70
39675;DHT22;27790;50.840;4.386;2024-02-23T15:22:29;11.20;96.70
39675;DHT22;27790;50.840;4.386;2024-02-23T15:24:55;11.10;96.50
39675;DHT22;27790;50.840;4.386;2024-02-23T15:27:23;11.00;97.00
39675;DHT22;27790;50.840;4.386;2024-02-23T15:29:49;11.10;96.90
39675;DHT22;27790;50.840;4.386;2024-02-23T15:32:14;11.00;97.20
39675;DHT22;27790;50.840;4.386;2024-02-23T15:34:40;11.10;97.00
39675;DHT22;27790;50.840;4.386;2024-02-23T15:37:06;11.10;97.10